Time;durP1;ratioP1;P1;durP2;ratioP2;P2;SDS_P1;SDS_P2;PMS_P1;PMS_P2;Temp;Humidity;BMP_temperature;BMP_pressure;BME280_temperature;BME280_humidity;BME280_pressure;Samples;Min_cycle;Max_cycle;Signal;HPM_P1;HPM_P2
2022/11/07 00:01:23;;;;;;;441.77;159.67;;;;;;;3.48;100.00;98647.84;5008694;28;20311;-68
2022/11/07 00:03:53;;;;;;;443.70;170.40;;;;;;;3.40;100.00;98641.88;5009424;28;20272;-68
2022/11/07 00:06:18;;;;;;;443.67;165.13;;;;;;;3.52;100.00;98649.56;5008606;28;20356;-68
2022/11/07 00:08:44;;;;;;;446.40;166.43;;;;;;;3.53;100.00;98658.88;5012727;28;20292;-68
2022/11/07 00:11:10;;;;;;;444.07;169.63;;;;;;;3.47;100.00;98661.38;5012361;28;20044;-68
2022/11/07 00:13:36;;;;;;;443.17;163.43;;;;;;;3.41;100.00;98650.31;5012982;28;20637;-69
2022/11/07 00:16:04;;;;;;;443.33;161.87;;;;;;;3.59;100.00;98661.50;5011650;28;20052;-69
2022/11/07 00:18:30;;;;;;;442.17;161.60;;;;;;;3.44;100.00;98652.88;5014037;28;20445;-69
2022/11/07 00:20:59;;;;;;;443.67;163.30;;;;;;;3.54;100.00;98670.72;5013021;28;20296;-69
2022/11/07 00:23:24;;;;;;;443.13;164.63;;;;;;;3.40;100.00;98654.53;5013809;28;20489;-68
2022/11/07 00:25:50;;;;;;;441.17;164.47;;;;;;;3.44;100.00;98681.59;5008496;28;20611;-70
2022/11/07 00:28:16;;;;;;;443.30;168.67;;;;;;;3.50;100.00;98666.47;5013778;28;20041;-69
2022/11/07 00:30:42;;;;;;;448.30;182.23;;;;;;;3.43;100.00;98681.59;5012595;28;20671;-62
2022/11/07 00:33:08;;;;;;;443.40;169.97;;;;;;;3.23;100.00;98667.03;5012951;28;20176;-63
2022/11/07 00:35:33;;;;;;;445.53;169.40;;;;;;;3.46;100.00;98677.41;5011947;28;20112;-61
2022/11/07 00:37:59;;;;;;;445.97;179.07;;;;;;;3.43;100.00;98664.72;5011584;28;20038;-62
2022/11/07 00:40:25;;;;;;;445.50;181.33;;;;;;;3.49;100.00;98681.66;5007573;28;20549;-62
2022/11/07 00:42:50;;;;;;;442.57;172.80;;;;;;;3.25;100.00;98659.47;5009793;28;20455;-63
2022/11/07 00:45:16;;;;;;;444.53;173.60;;;;;;;3.41;100.00;98673.97;5012582;28;20080;-62
2022/11/07 00:47:41;;;;;;;441.37;168.10;;;;;;;3.55;100.00;98658.91;5011214;28;20042;-62
2022/11/07 00:50:07;;;;;;;444.77;176.40;;;;;;;3.71;100.00;98682.69;5011536;28;20501;-61
2022/11/07 00:52:33;;;;;;;442.03;172.03;;;;;;;3.64;100.00;98679.28;5010943;28;20544;-63
2022/11/07 00:54:58;;;;;;;441.77;172.50;;;;;;;3.72;100.00;98672.59;5012701;28;20045;-61
2022/11/07 00:57:24;;;;;;;442.27;168.30;;;;;;;3.61;100.00;98662.34;5013199;28;20053;-62
2022/11/07 00:59:49;;;;;;;441.93;173.40;;;;;;;3.89;100.00;98686.25;5013176;28;20052;-61
2022/11/07 01:02:15;;;;;;;444.33;180.37;;;;;;;3.83;100.00;98685.34;5011414;28;20046;-62
2022/11/07 01:07:25;;;;;;;441.63;169.73;;;;;;;3.76;100.00;98697.13;5012451;28;20046;-61
2022/11/07 01:09:50;;;;;;;440.97;169.07;;;;;;;3.76;100.00;98691.22;5009935;28;20339;-61
2022/11/07 01:12:16;;;;;;;445.20;177.97;;;;;;;3.76;100.00;98694.59;5011908;28;20050;-61
2022/11/07 01:14:41;;;;;;;443.80;178.27;;;;;;;3.71;100.00;98705.53;5011678;28;20037;-61
2022/11/07 01:17:07;;;;;;;443.63;169.93;;;;;;;3.58;100.00;98681.75;5011816;28;20050;-62
2022/11/07 01:19:33;;;;;;;439.80;167.67;;;;;;;3.69;100.00;98700.47;5026476;28;20065;-63
2022/11/07 01:21:58;;;;;;;445.13;169.23;;;;;;;3.54;100.00;98690.16;5011757;28;20461;-62
2022/11/07 01:24:24;;;;;;;439.87;171.90;;;;;;;3.61;100.00;98710.50;5011763;28;20050;-62
2022/11/07 01:26:52;;;;;;;441.00;165.07;;;;;;;3.70;100.00;98707.19;5010594;28;20041;-68
2022/11/07 01:29:19;;;;;;;441.13;168.83;;;;;;;3.75;100.00;98702.19;5011319;28;20042;-70
2022/11/07 01:31:45;;;;;;;442.53;174.87;;;;;;;3.62;100.00;98686.00;5012280;28;20316;-66
2022/11/07 01:34:10;;;;;;;440.57;171.13;;;;;;;3.64;100.00;98700.41;5011040;28;20318;-69
2022/11/07 01:36:36;;;;;;;439.53;168.37;;;;;;;3.68;100.00;98706.34;5013742;28;20300;-68
2022/11/07 01:39:03;;;;;;;439.90;166.70;;;;;;;3.65;100.00;98701.22;5013474;28;20068;-69
2022/11/07 01:41:32;;;;;;;442.23;172.70;;;;;;;3.65;100.00;98704.63;5014572;28;20046;-67
2022/11/07 01:44:07;;;;;;;442.30;177.83;;;;;;;3.65;100.00;98699.56;5010635;28;20343;-68
2022/11/07 01:46:38;;;;;;;439.52;168.93;;;;;;;3.65;100.00;98714.75;5013529;28;20356;-68
2022/11/07 01:49:20;;;;;;;438.07;162.53;;;;;;;3.70;100.00;98712.28;5022985;28;20107;-69
2022/11/07 01:51:59;;;;;;;437.87;168.90;;;;;;;3.70;100.00;98702.13;5012744;28;20281;-69
2022/11/07 01:54:30;;;;;;;440.77;167.53;;;;;;;3.77;100.00;98703.06;5010894;28;21055;-68
2022/11/07 01:56:59;;;;;;;441.13;170.63;;;;;;;3.73;100.00;98686.13;5013194;28;20263;-64
2022/11/07 01:59:29;;;;;;;441.93;173.73;;;;;;;3.75;100.00;98680.22;5010553;28;20288;-64
2022/11/07 02:01:55;;;;;;;442.20;176.70;;;;;;;3.82;100.00;98689.56;5011433;28;20280;-64
2022/11/07 02:04:25;;;;;;;441.80;173.03;;;;;;;3.87;100.00;98689.59;5011193;28;20382;-64
2022/11/07 02:06:57;;;;;;;440.60;172.73;;;;;;;3.88;100.00;98699.78;5009945;28;20037;-64
2022/11/07 02:09:22;;;;;;;440.40;171.67;;;;;;;3.95;100.00;98693.91;5011169;28;20806;-64
2022/11/07 02:11:48;;;;;;;439.07;173.13;;;;;;;3.95;100.00;98695.59;5011182;28;20299;-64
2022/11/07 02:14:15;;;;;;;441.90;174.63;;;;;;;4.01;100.00;98704.09;5010956;28;20095;-65
2022/11/07 02:16:41;;;;;;;442.90;178.13;;;;;;;3.98;100.00;98686.34;5010257;28;20440;-65
2022/11/07 02:19:13;;;;;;;439.13;170.40;;;;;;;3.91;100.00;98704.84;5011320;28;20663;-65
2022/11/07 02:21:54;;;;;;;439.67;171.07;;;;;;;3.95;100.00;98693.91;5010811;28;20309;-65
2022/11/07 02:24:33;;;;;;;439.30;168.37;;;;;;;3.86;100.00;98696.34;5010875;28;20284;-63
2022/11/07 02:27:04;;;;;;;438.63;163.50;;;;;;;4.02;100.00;98690.59;5010130;28;20926;-65
2022/11/07 02:29:32;;;;;;;440.40;176.40;;;;;;;4.14;100.00;98718.59;5009113;28;20810;-65
2022/11/07 02:32:01;;;;;;;437.90;167.07;;;;;;;4.18;100.00;98703.38;5008192;28;20303;-65
2022/11/07 02:34:27;;;;;;;443.50;177.53;;;;;;;4.02;100.00;98684.66;5011631;28;20748;-64
2022/11/07 02:36:52;;;;;;;443.77;182.40;;;;;;;4.13;100.00;98700.81;5010210;28;20284;-63
2022/11/07 02:39:18;;;;;;;440.30;172.80;;;;;;;4.07;100.00;98726.97;5010686;28;20077;-64
2022/11/07 02:41:45;;;;;;;445.73;182.33;;;;;;;4.03;100.00;98694.00;5005617;28;20409;-64
2022/11/07 02:44:11;;;;;;;441.73;177.30;;;;;;;4.11;100.00;98721.13;5009566;28;20169;-64
2022/11/07 02:46:38;;;;;;;443.43;178.83;;;;;;;4.14;100.00;98707.59;5007399;28;20297;-64
2022/11/07 02:49:04;;;;;;;445.53;186.83;;;;;;;4.12;100.00;98729.53;5011745;28;20287;-65
2022/11/07 02:51:29;;;;;;;445.53;189.13;;;;;;;4.16;100.00;98718.59;5007542;28;20280;-64
2022/11/07 02:53:56;;;;;;;442.17;180.00;;;;;;;4.14;100.00;98730.41;5025429;28;20050;-63
2022/11/07 02:56:22;;;;;;;441.40;171.37;;;;;;;4.06;100.00;98702.47;5009625;28;20355;-64
2022/11/07 02:58:47;;;;;;;443.33;180.00;;;;;;;4.19;100.00;98733.84;5010626;28;20104;-64
2022/11/07 03:01:14;;;;;;;443.10;183.67;;;;;;;4.22;100.00;98733.88;5010720;28;20939;-64
2022/11/07 03:03:43;;;;;;;440.47;171.67;;;;;;;4.08;100.00;98710.91;5010745;28;20045;-63
2022/11/07 03:06:11;;;;;;;440.93;176.13;;;;;;;4.23;100.00;98742.34;5010335;28;20688;-64
2022/11/07 03:08:37;;;;;;;444.10;178.03;;;;;;;4.20;100.00;98747.38;5024877;28;20308;-63
2022/11/07 03:11:03;;;;;;;444.00;178.07;;;;;;;4.09;100.00;98724.47;5009101;28;20342;-63
2022/11/07 03:13:30;;;;;;;445.50;186.40;;;;;;;4.22;100.00;98744.00;5008337;28;20077;-64
2022/11/07 03:15:56;;;;;;;449.43;195.70;;;;;;;4.28;100.00;98751.69;5004968;28;20681;-65
2022/11/07 03:18:22;;;;;;;448.33;191.37;;;;;;;4.35;100.00;98757.66;4998969;28;20137;-63
2022/11/07 03:20:48;;;;;;;445.70;185.27;;;;;;;4.41;100.00;98760.25;5010541;28;20284;-63
2022/11/07 03:23:14;;;;;;;444.53;182.80;;;;;;;4.46;100.00;98756.03;5010884;28;20285;-62
2022/11/07 03:25:40;;;;;;;448.43;194.87;;;;;;;4.38;100.00;98743.28;5009088;28;20045;-63
2022/11/07 03:28:06;;;;;;;446.63;185.27;;;;;;;4.54;100.00;98760.31;5025623;28;20770;-64
2022/11/07 03:30:32;;;;;;;449.30;196.70;;;;;;;4.37;100.00;98741.59;5010461;28;20288;-63
2022/11/07 03:32:58;;;;;;;447.00;191.93;;;;;;;4.59;100.00;98778.13;5010009;28;20052;-65
2022/11/07 03:35:23;;;;;;;445.97;189.07;;;;;;;4.54;100.00;98767.94;5009645;28;20128;-64
2022/11/07 03:37:49;;;;;;;446.93;192.93;;;;;;;4.72;100.00;98784.13;5007276;28;20355;-65
2022/11/07 03:40:15;;;;;;;449.53;197.33;;;;;;;4.75;100.00;98787.56;5009271;28;20042;-64
2022/11/07 03:42:43;;;;;;;446.77;189.30;;;;;;;4.68;100.00;98770.56;5007198;28;20503;-63
2022/11/07 03:45:10;;;;;;;450.07;196.70;;;;;;;4.79;100.00;98790.97;5010132;28;20285;-64
2022/11/07 03:47:37;;;;;;;448.67;194.17;;;;;;;4.81;100.00;98794.34;5020859;28;20837;-63
2022/11/07 03:50:03;;;;;;;451.13;203.67;;;;;;;4.84;100.00;98794.38;5007362;28;20742;-65
2022/11/07 03:52:29;;;;;;;447.53;192.87;;;;;;;4.87;100.00;98789.34;5025919;28;20371;-64
2022/11/07 03:54:55;;;;;;;447.10;199.97;;;;;;;4.76;100.00;98770.63;5010579;28;20320;-63
2022/11/07 03:57:20;;;;;;;453.97;213.90;;;;;;;4.99;100.00;98805.50;5005012;28;20391;-65
2022/11/07 03:59:46;;;;;;;451.50;207.00;;;;;;;5.02;100.00;98802.09;5002965;28;20053;-65
2022/11/07 04:02:11;;;;;;;449.43;200.30;;;;;;;5.00;100.00;98811.44;5010787;28;20057;-63
2022/11/07 04:04:37;;;;;;;448.87;194.03;;;;;;;4.92;100.00;98792.75;5010679;28;20046;-65
2022/11/07 04:07:03;;;;;;;448.10;196.40;;;;;;;4.92;100.00;98797.84;5009275;28;20484;-64
2022/11/07 04:09:29;;;;;;;450.23;207.83;;;;;;;5.07;100.00;98800.44;5008028;28;20068;-65
2022/11/07 04:17:23;;;;;;;450.73;205.40;;;;;;;5.26;100.00;98814.94;5010926;28;20366;-64
2022/11/07 04:19:51;;;;;;;450.90;207.30;;;;;;;5.27;100.00;98815.78;5010982;28;20284;-65
2022/11/07 04:22:17;;;;;;;449.93;203.30;;;;;;;5.32;100.00;98839.53;5009658;28;20276;-65
2022/11/07 04:24:43;;;;;;;450.40;209.33;;;;;;;5.38;100.00;98849.75;5005708;28;20390;-65
2022/11/07 04:29:54;;;;;;;457.45;216.15;;;;;;;5.36;100.00;98842.13;5005434;28;20512;-64
2022/11/07 04:32:22;;;;;;;453.87;217.20;;;;;;;5.52;100.00;98840.47;4999300;28;20050;-64
2022/11/07 04:34:49;;;;;;;454.93;215.57;;;;;;;5.30;100.00;98829.38;5001049;28;20053;-64
2022/11/07 04:37:14;;;;;;;454.00;220.17;;;;;;;5.58;100.00;98843.06;4982468;28;20307;-62
2022/11/07 04:39:40;;;;;;;453.77;215.03;;;;;;;5.42;100.00;98839.63;5006868;28;20289;-62
2022/11/07 04:42:05;;;;;;;454.03;219.60;;;;;;;5.52;100.00;98864.22;5010651;28;20864;-63
2022/11/07 04:44:31;;;;;;;455.10;212.77;;;;;;;5.46;100.00;98864.22;5007659;28;20040;-61
2022/11/07 04:46:56;;;;;;;456.87;219.60;;;;;;;5.40;100.00;98851.44;5008827;28;20104;-60
2022/11/07 04:49:22;;;;;;;459.07;228.20;;;;;;;5.53;100.00;98852.34;5004744;28;20061;-61
2022/11/07 04:51:48;;;;;;;456.47;225.03;;;;;;;5.79;100.00;98852.47;4986056;28;20861;-60
2022/11/07 04:54:14;;;;;;;456.23;224.43;;;;;;;5.82;100.00;98865.19;5009630;28;20045;-62
2022/11/07 04:56:40;;;;;;;454.30;216.97;;;;;;;5.64;100.00;98852.41;5013416;28;20037;-70
2022/11/07 04:59:12;;;;;;;459.83;234.40;;;;;;;5.76;100.00;98858.41;5009239;28;20655;-59
2022/11/07 05:01:37;;;;;;;454.93;220.13;;;;;;;5.70;100.00;98848.19;5009675;28;20326;-62
2022/11/07 05:04:03;;;;;;;459.83;231.93;;;;;;;5.58;100.00;98862.56;5012056;28;20268;-61
2022/11/07 05:06:34;;;;;;;458.60;219.33;;;;;;;5.51;100.00;98848.97;5006828;28;20107;-61
2022/11/07 05:09:00;;;;;;;460.47;231.50;;;;;;;5.46;100.00;98850.66;5006512;28;20419;-61
2022/11/07 05:11:26;;;;;;;456.53;223.47;;;;;;;5.51;100.00;98857.47;5006534;28;20285;-61
2022/11/07 05:13:51;;;;;;;457.43;229.10;;;;;;;5.58;100.00;98865.09;5011740;28;20543;-61
2022/11/07 05:16:17;;;;;;;457.67;225.67;;;;;;;5.55;100.00;98857.47;5015269;28;20056;-61
2022/11/07 05:18:43;;;;;;;457.43;220.83;;;;;;;5.47;100.00;98854.88;5014689;28;20053;-61
2022/11/07 05:21:08;;;;;;;457.33;224.00;;;;;;;5.44;100.00;98844.69;5014384;28;20080;-60
2022/11/07 05:23:34;;;;;;;456.07;226.80;;;;;;;5.61;100.00;98875.28;5013657;28;20412;-61
2022/11/07 05:26:00;;;;;;;456.70;224.97;;;;;;;5.53;100.00;98868.47;5013781;28;20252;-59
2022/11/07 05:28:30;;;;;;;461.03;228.47;;;;;;;5.51;100.00;98856.59;5012055;28;20041;-60
2022/11/07 05:31:01;;;;;;;454.70;220.93;;;;;;;5.63;100.00;98877.00;5014237;28;20488;-61
2022/11/07 05:33:27;;;;;;;458.73;220.93;;;;;;;5.65;100.00;98880.38;5014263;28;20790;-61
2022/11/07 05:35:52;;;;;;;457.67;219.20;;;;;;;5.67;100.00;98880.41;5010611;28;20392;-61
2022/11/07 05:38:18;;;;;;;459.87;227.37;;;;;;;5.54;100.00;98861.69;4991992;28;20046;-61
2022/11/07 05:40:43;;;;;;;461.43;236.00;;;;;;;5.61;100.00;98888.84;5006204;28;20052;-61
2022/11/07 05:43:11;;;;;;;458.43;225.27;;;;;;;5.65;100.00;98894.78;5010770;28;20046;-61
2022/11/07 05:45:37;;;;;;;462.70;233.67;;;;;;;5.62;100.00;98898.19;5027592;28;20068;-61
2022/11/07 05:48:06;;;;;;;457.67;233.70;;;;;;;5.65;100.00;98899.88;5012134;28;20304;-61
2022/11/07 05:50:32;;;;;;;457.57;234.63;;;;;;;5.52;100.00;98884.56;5012967;28;20352;-63
2022/11/07 05:52:58;;;;;;;456.77;227.43;;;;;;;5.62;100.00;98899.88;5012405;28;20806;-62
2022/11/07 05:55:24;;;;;;;456.03;221.77;;;;;;;5.67;100.00;98914.31;5008204;28;20980;-68
2022/11/07 05:57:50;;;;;;;456.57;224.07;;;;;;;5.63;100.00;98911.75;5008969;28;20046;-68
2022/11/07 06:00:17;;;;;;;458.03;230.77;;;;;;;5.63;100.00;98912.59;5009467;28;20726;-69
2022/11/07 06:02:43;;;;;;;457.50;222.90;;;;;;;5.60;100.00;98916.81;5011693;28;20412;-71
2022/11/07 06:05:09;;;;;;;455.90;229.43;;;;;;;5.55;100.00;98901.53;5011152;28;21257;-63
2022/11/07 06:07:38;;;;;;;457.10;226.93;;;;;;;5.52;100.00;98907.44;5008494;28;20423;-70
2022/11/07 06:10:06;;;;;;;454.27;224.17;;;;;;;5.50;100.00;98909.16;5008968;28;20038;-65
2022/11/07 06:12:31;;;;;;;457.00;235.10;;;;;;;5.62;100.00;98941.41;5003582;28;20304;-63
2022/11/07 06:14:57;;;;;;;461.53;237.63;;;;;;;5.68;100.00;98940.59;4992140;28;20303;-63
2022/11/07 06:17:23;;;;;;;456.67;231.97;;;;;;;5.70;100.00;98941.44;4988336;28;20351;-63
2022/11/07 06:19:48;;;;;;;454.50;232.43;;;;;;;5.68;100.00;98949.09;5004232;28;20037;-63
2022/11/07 06:22:14;;;;;;;452.07;223.90;;;;;;;5.62;100.00;98953.28;5021347;28;20127;-64
2022/11/07 06:24:39;;;;;;;457.20;230.90;;;;;;;5.45;100.00;98923.53;5020096;28;20508;-64
2022/11/07 06:27:05;;;;;;;460.33;233.23;;;;;;;5.59;100.00;98948.19;5003243;28;20053;-63
2022/11/07 06:29:31;;;;;;;455.70;221.67;;;;;;;5.64;100.00;98947.38;5006678;28;20080;-63
2022/11/07 06:31:56;;;;;;;456.20;229.97;;;;;;;5.73;100.00;98955.03;5010175;28;20041;-64
2022/11/07 06:34:22;;;;;;;455.03;228.23;;;;;;;5.75;100.00;98957.59;5009879;28;20052;-64
2022/11/07 06:36:54;;;;;;;454.23;219.60;;;;;;;5.72;100.00;98957.59;5009170;28;20049;-63
2022/11/07 06:39:21;;;;;;;452.43;222.50;;;;;;;5.79;100.00;98975.44;5007854;28;20038;-63
2022/11/07 06:41:49;;;;;;;452.37;211.03;;;;;;;5.79;100.00;98965.25;5008400;28;20886;-63
2022/11/07 06:44:16;;;;;;;455.90;226.03;;;;;;;5.87;100.00;98967.84;5008451;28;20301;-64
2022/11/07 06:46:42;;;;;;;453.00;221.30;;;;;;;5.81;100.00;98965.28;5008333;28;20301;-65
2022/11/07 06:49:09;;;;;;;455.57;221.13;;;;;;;5.91;100.00;98988.25;5008996;28;20272;-63
2022/11/07 06:51:34;;;;;;;459.33;236.50;;;;;;;5.81;100.00;98972.91;5005970;28;20384;-63
2022/11/07 06:54:00;;;;;;;455.53;228.97;;;;;;;5.90;100.00;98989.06;5008503;28;20277;-64
2022/11/07 06:56:26;;;;;;;461.17;233.57;;;;;;;5.84;100.00;98978.84;5009031;28;20392;-64
2022/11/07 06:58:51;;;;;;;456.37;229.43;;;;;;;6.01;100.00;99001.88;5009788;28;20165;-63
2022/11/07 07:01:18;;;;;;;458.57;236.77;;;;;;;6.04;100.00;98995.94;5010970;28;20072;-64
2022/11/07 07:03:44;;;;;;;459.37;233.03;;;;;;;6.12;100.00;99004.44;5024551;28;20026;-64
2022/11/07 07:06:15;;;;;;;452.73;231.67;;;;;;;6.21;100.00;99002.81;5023379;28;20324;-64
2022/11/07 07:08:41;;;;;;;473.10;326.10;;;;;;;6.25;100.00;99001.97;5010405;28;20419;-64
2022/11/07 07:11:10;;;;;;;457.50;247.13;;;;;;;6.27;100.00;99009.63;5007666;28;20280;-64
2022/11/07 07:13:36;;;;;;;464.87;269.50;;;;;;;6.27;100.00;98999.44;5002916;28;20275;-64
2022/11/07 07:16:02;;;;;;;459.37;242.50;;;;;;;6.34;100.00;99009.66;5005263;28;20300;-60
2022/11/07 07:18:29;;;;;;;457.87;238.33;;;;;;;6.31;100.00;99011.34;5009154;28;20355;-61
2022/11/07 07:21:07;;;;;;;461.73;260.63;;;;;;;6.40;100.00;99012.22;5007886;28;20761;-60
2022/11/07 07:23:37;;;;;;;457.10;242.60;;;;;;;6.37;100.00;99019.84;5010674;28;20276;-61
2022/11/07 07:26:08;;;;;;;460.30;251.73;;;;;;;6.36;100.00;99028.34;5008902;28;20768;-59
2022/11/07 07:28:36;;;;;;;457.80;237.73;;;;;;;6.36;100.00;99025.81;5008628;28;20273;-60
2022/11/07 07:31:23;;;;;;;463.90;258.20;;;;;;;6.45;100.00;99024.13;5005093;28;20679;-59
2022/11/07 07:33:49;;;;;;;461.47;254.03;;;;;;;6.49;100.00;99021.59;5003723;28;21040;-60
2022/11/07 07:36:16;;;;;;;459.73;253.40;;;;;;;6.40;100.00;99019.88;5008266;28;20357;-69
2022/11/07 07:38:41;;;;;;;459.93;254.97;;;;;;;6.55;100.00;99025.84;5009530;28;20377;-67
2022/11/07 07:41:07;;;;;;;460.33;254.90;;;;;;;6.64;100.00;99030.97;5008409;28;20289;-67
2022/11/07 07:43:33;;;;;;;467.13;259.83;;;;;;;6.67;100.00;99038.63;5007373;28;20342;-67
2022/11/07 07:46:04;;;;;;;460.70;256.77;;;;;;;6.66;100.00;99039.50;4984814;28;20064;-66
2022/11/07 07:48:30;;;;;;;460.37;252.23;;;;;;;6.64;100.00;99034.38;5004578;28;20775;-68
2022/11/07 07:50:56;;;;;;;459.77;256.27;;;;;;;6.62;100.00;99036.06;5008401;28;20311;-61
2022/11/07 07:53:22;;;;;;;463.33;272.20;;;;;;;6.68;100.00;99037.78;5003255;28;20318;-61
2022/11/07 07:55:48;;;;;;;463.60;264.20;;;;;;;6.76;100.00;99041.19;5004862;28;20347;-61
2022/11/07 07:58:13;;;;;;;462.33;257.93;;;;;;;6.85;100.00;99028.47;5008297;28;20062;-61
2022/11/07 08:00:40;;;;;;;465.73;250.53;;;;;;;7.05;100.00;99033.59;5007880;28;20045;-68
2022/11/07 08:03:10;;;;;;;471.27;267.57;;;;;;;7.11;100.00;99043.81;5009591;28;20069;-66
2022/11/07 08:05:37;;;;;;;471.40;283.47;;;;;;;7.21;100.00;99023.41;5002815;28;20827;-67
2022/11/07 08:08:04;;;;;;;465.60;266.47;;;;;;;7.46;100.00;99013.25;5000587;28;20647;-68
2022/11/07 08:10:30;;;;;;;467.30;264.87;;;;;;;7.87;100.00;99018.28;5018731;28;20769;-67
2022/11/07 08:12:55;;;;;;;463.73;264.90;;;;;;;8.20;100.00;99038.63;5008611;28;20296;-68
2022/11/07 08:15:21;;;;;;;475.47;285.63;;;;;;;8.41;100.00;99040.28;5007552;28;20794;-68
2022/11/07 08:17:47;;;;;;;465.17;283.43;;;;;;;8.62;100.00;99035.94;5006323;28;20508;-68
2022/11/07 08:20:14;;;;;;;475.97;290.40;;;;;;;8.81;100.00;99039.25;5001294;28;20042;-67
2022/11/07 08:22:40;;;;;;;475.00;305.87;;;;;;;8.77;100.00;99036.72;5019603;28;20034;-68
2022/11/07 08:25:08;;;;;;;473.60;305.20;;;;;;;8.92;100.00;99034.91;5008443;28;20284;-69
2022/11/07 08:27:34;;;;;;;477.10;314.97;;;;;;;8.92;100.00;99042.59;5008904;28;20041;-69
2022/11/07 08:30:00;;;;;;;480.30;324.33;;;;;;;9.05;100.00;99038.25;5008052;28;20046;-68
2022/11/07 08:32:27;;;;;;;480.60;326.07;;;;;;;9.19;100.00;99031.34;5006624;28;20037;-68
2022/11/07 08:34:52;;;;;;;479.17;329.17;;;;;;;9.25;100.00;99041.50;5011656;28;20060;-68
2022/11/07 08:37:18;;;;;;;476.33;323.23;;;;;;;9.17;100.00;99027.94;5014468;28;20054;-68
2022/11/07 08:39:44;;;;;;;479.23;341.73;;;;;;;9.15;100.00;99040.75;5005631;28;20034;-68
2022/11/07 08:42:10;;;;;;;478.50;339.43;;;;;;;9.23;100.00;99043.25;5021993;28;20052;-69
2022/11/07 08:44:36;;;;;;;474.00;317.23;;;;;;;9.20;100.00;99050.97;5010412;28;20297;-68
2022/11/07 08:47:03;;;;;;;477.40;328.97;;;;;;;9.19;100.00;99041.56;5014360;28;20481;-68
2022/11/07 08:49:28;;;;;;;479.60;346.00;;;;;;;9.17;100.00;99033.91;5013100;28;20042;-69
2022/11/07 08:51:54;;;;;;;480.80;352.23;;;;;;;9.26;100.00;99056.00;5010141;28;20312;-68
2022/11/07 08:54:20;;;;;;;482.47;357.77;;;;;;;9.18;100.00;99039.88;5006881;28;20042;-68
2022/11/07 08:56:47;;;;;;;480.13;342.67;;;;;;;9.28;100.00;99050.91;5011587;28;20051;-68
2022/11/07 08:59:13;;;;;;;480.10;345.67;;;;;;;9.37;100.00;99044.00;5014463;28;20077;-69
2022/11/07 09:01:38;;;;;;;482.37;357.23;;;;;;;9.57;100.00;99054.09;5007270;28;20046;-60
2022/11/07 09:04:04;;;;;;;489.47;369.33;;;;;;;9.73;100.00;99055.63;5006071;28;20042;-59
2022/11/07 09:06:31;;;;;;;481.93;358.17;;;;;;;10.01;100.00;99051.94;5007863;28;20113;-64
2022/11/07 09:08:58;;;;;;;483.57;367.60;;;;;;;10.18;100.00;99056.97;5005893;28;20050;-63
2022/11/07 09:11:24;;;;;;;481.37;364.67;;;;;;;10.46;100.00;99060.06;5008746;28;20434;-63
2022/11/07 09:13:52;;;;;;;497.70;383.20;;;;;;;10.74;100.00;99057.97;5005789;28;20539;-62
2022/11/07 09:16:18;;;;;;;504.13;397.40;;;;;;;10.25;100.00;99056.03;5004957;28;20037;-69
2022/11/07 09:18:45;;;;;;;503.87;392.70;;;;;;;10.36;100.00;99053.31;5012654;28;20029;-68
2022/11/07 09:21:11;;;;;;;493.40;392.93;;;;;;;10.45;100.00;99042.97;5010810;28;20496;-67
2022/11/07 09:23:38;;;;;;;491.40;394.67;;;;;;;10.72;100.00;99057.16;5008381;28;20054;-67
2022/11/07 09:26:06;;;;;;;487.77;404.30;;;;;;;11.16;100.00;99059.97;5006762;28;20038;-67
2022/11/07 09:28:32;;;;;;;487.43;401.67;;;;;;;11.31;100.00;99056.34;5009462;28;20053;-69
2022/11/07 09:30:59;;;;;;;491.23;418.30;;;;;;;11.52;100.00;99058.56;5010958;28;20057;-68
2022/11/07 09:33:25;;;;;;;490.20;416.23;;;;;;;11.43;100.00;99049.28;5011813;28;20042;-69
2022/11/07 09:35:51;;;;;;;494.07;427.17;;;;;;;11.51;100.00;99041.47;5009367;28;20042;-67
2022/11/07 09:38:17;;;;;;;490.10;429.13;;;;;;;11.65;100.00;99054.09;5011279;28;20049;-66
2022/11/07 09:41:05;;;;;;;499.20;441.00;;;;;;;11.67;100.00;99052.34;5009101;28;20095;-68
2022/11/07 09:44:08;;;;;;;503.83;448.43;;;;;;;12.08;100.00;99043.94;5005761;28;20568;-63
2022/11/07 09:47:04;;;;;;;498.23;441.93;;;;;;;11.84;100.00;99064.03;5005867;28;20489;-61
2022/11/07 09:49:35;;;;;;;509.45;454.05;;;;;;;11.72;100.00;99056.56;5005353;28;20069;-61
2022/11/07 09:52:22;;;;;;;518.60;462.90;;;;;;;12.05;100.00;99055.09;5019291;28;20048;-63
2022/11/07 09:55:06;;;;;;;521.07;465.40;;;;;;;12.17;100.00;99023.22;5005158;28;20638;-63
2022/11/07 09:57:34;;;;;;;511.40;456.10;;;;;;;12.45;100.00;99034.66;5007846;28;20484;-63
2022/11/07 10:00:13;;;;;;;528.67;472.77;;;;;;;12.58;100.00;99032.66;5011397;28;20049;-63
2022/11/07 10:02:47;;;;;;;543.67;487.57;;;;;;;12.47;100.00;99032.91;5008730;28;20092;-62
2022/11/07 10:05:17;;;;;;;538.83;483.10;;;;;;;12.53;100.00;99045.63;5009088;28;20132;-61
2022/11/07 10:08:09;;;;;;;537.43;481.63;;;;;;;12.38;100.00;99043.38;5010717;28;20038;-61
2022/11/07 10:10:43;;;;;;;531.57;475.80;;;;;;;12.33;100.00;99047.75;5008811;28;20041;-61
2022/11/07 10:13:15;;;;;;;524.40;468.80;;;;;;;12.08;100.00;99049.09;5009550;28;20579;-58
2022/11/07 10:16:02;;;;;;;518.60;463.30;;;;;;;12.15;100.00;99040.38;5010200;28;20280;-61
2022/11/07 10:18:58;;;;;;;547.63;491.63;;;;;;;12.25;100.00;99047.91;5008523;28;20037;-61
2022/11/07 10:21:43;;;;;;;528.73;473.13;;;;;;;12.34;100.00;99041.72;5010562;28;20060;-61
2022/11/07 10:24:28;;;;;;;532.63;476.87;;;;;;;12.21;100.00;99023.13;5008669;28;20577;-62
2022/11/07 10:26:55;;;;;;;549.38;493.38;;;;;;;12.39;100.00;99047.59;5009205;28;20037;-62
2022/11/07 10:29:27;;;;;;;546.00;490.03;;;;;;;12.10;100.00;99027.59;5004569;28;20037;-60
2022/11/07 10:32:14;;;;;;;551.13;494.87;;;;;;;12.31;100.00;99016.06;5004319;28;20042;-62
2022/11/07 10:34:48;;;;;;;550.00;493.87;;;;;;;12.37;100.00;99010.81;5006754;28;20049;-60
2022/11/07 10:37:13;;;;;;;541.30;485.23;;;;;;;12.55;100.00;99022.44;5008288;28;20251;-60
2022/11/07 10:39:39;;;;;;;549.73;493.83;;;;;;;12.56;100.00;99009.53;5009368;28;20475;-61
2022/11/07 10:42:31;;;;;;;550.27;494.13;;;;;;;12.74;100.00;99013.44;5011231;28;20500;-60
2022/11/07 10:44:58;;;;;;;559.57;503.50;;;;;;;12.70;100.00;99010.09;5006557;28;20120;-59
2022/11/07 10:47:26;;;;;;;549.53;493.60;;;;;;;12.85;100.00;99018.38;5010366;28;20088;-59
2022/11/07 10:49:54;;;;;;;559.70;503.60;;;;;;;12.47;100.00;99002.03;5008607;28;20108;-61
2022/11/07 10:52:19;;;;;;;563.03;506.77;;;;;;;12.66;100.00;99015.34;5009287;28;20038;-61
2022/11/07 10:54:45;;;;;;;560.90;504.87;;;;;;;12.67;100.00;99005.03;5010737;28;20079;-59
2022/11/07 10:57:15;;;;;;;574.97;518.37;;;;;;;12.83;100.00;99011.53;5009184;28;20489;-60
2022/11/07 10:59:47;;;;;;;575.60;519.27;;;;;;;12.89;100.00;99008.00;5010202;28;20476;-59
2022/11/07 11:02:22;;;;;;;578.60;522.33;;;;;;;12.96;100.00;99014.69;5010048;28;20050;-61
2022/11/07 11:04:53;;;;;;;573.57;517.33;;;;;;;12.94;100.00;99007.88;5010122;28;20049;-59
2022/11/07 11:07:20;;;;;;;576.73;520.43;;;;;;;13.01;100.00;99009.44;5007688;28;20183;-60
2022/11/07 11:09:53;;;;;;;586.57;529.77;;;;;;;13.03;100.00;99007.66;5010305;28;20042;-60
2022/11/07 11:12:25;;;;;;;592.73;535.53;;;;;;;12.99;100.00;99008.59;5007987;28;20140;-60
2022/11/07 11:15:03;;;;;;;594.10;537.13;;;;;;;13.11;100.00;99004.06;5001468;28;20461;-58